createdAt,value
2023-02-18T00:01:58.917Z,29.68
2023-02-18T00:04:27.002Z,29.68
2023-02-18T00:06:57.082Z,29.82
2023-02-18T00:09:25.824Z,28.93
2023-02-18T00:11:54.055Z,28.94
2023-02-18T00:14:24.227Z,29.50
2023-02-18T00:16:52.710Z,28.60
2023-02-18T00:19:22.632Z,28.80
2023-02-18T00:21:50.633Z,28.33
2023-02-18T00:24:20.355Z,28.26
2023-02-18T00:26:51.557Z,28.31
2023-02-18T00:29:21.042Z,27.89
2023-02-18T00:31:50.936Z,28.29
2023-02-18T00:34:20.850Z,27.09
2023-02-18T00:36:50.881Z,27.64
2023-02-18T00:39:18.748Z,27.51
2023-02-18T00:41:46.603Z,27.57
2023-02-18T00:44:18.078Z,27.54
2023-02-18T00:46:48.488Z,27.29
2023-02-18T00:49:17.769Z,27.26
2023-02-18T00:51:47.140Z,26.90
2023-02-18T00:54:14.909Z,26.91
2023-02-18T00:56:42.708Z,27.54
2023-02-18T00:59:11.049Z,27.49
2023-02-18T01:01:39.163Z,27.18
2023-02-18T01:04:08.972Z,27.20
2023-02-18T01:06:37.063Z,26.77
2023-02-18T01:09:06.574Z,27.13
2023-02-18T01:11:34.784Z,26.71
2023-02-18T01:14:07.271Z,26.54
2023-02-18T01:16:37.879Z,27.25
2023-02-18T01:19:09.407Z,26.91
2023-02-18T01:21:38.971Z,26.37
2023-02-18T01:24:07.230Z,26.76
2023-02-18T01:26:37.417Z,27.17
2023-02-18T01:29:05.313Z,26.77
2023-02-18T01:31:33.363Z,26.64
2023-02-18T01:34:04.564Z,26.89
2023-02-18T01:36:32.435Z,26.46
2023-02-18T01:39:00.859Z,26.86
2023-02-18T01:41:29.283Z,26.60
2023-02-18T01:44:20.116Z,26.72
2023-02-18T01:46:52.452Z,26.94
2023-02-18T01:49:31.276Z,27.21
2023-02-18T01:52:13.645Z,27.53
2023-02-18T01:54:46.065Z,27.43
2023-02-18T01:57:31.744Z,27.29
2023-02-18T02:00:06.902Z,27.63
2023-02-18T02:02:50.786Z,27.38
2023-02-18T02:05:20.525Z,27.44
2023-02-18T02:07:53.816Z,27.21
2023-02-18T02:10:21.709Z,27.63
2023-02-18T02:13:21.203Z,27.45
2023-02-18T02:15:58.739Z,27.62
2023-02-18T02:19:06.699Z,27.85
2023-02-18T02:22:04.422Z,27.86
2023-02-18T02:25:01.652Z,27.86
2023-02-18T02:27:49.158Z,27.79
2023-02-18T02:30:41.785Z,28.39
2023-02-18T02:33:46.959Z,28.64
2023-02-18T02:36:32.915Z,28.84
2023-02-18T02:39:19.227Z,28.77
2023-02-18T02:42:01.070Z,28.92
2023-02-18T02:44:58.062Z,29.05
2023-02-18T02:47:37.290Z,29.07
2023-02-18T02:50:18.209Z,28.94
2023-02-18T02:52:53.021Z,29.01
2023-02-18T02:55:21.325Z,29.27
2023-02-18T02:57:55.020Z,29.40
2023-02-18T03:01:10.196Z,29.26
2023-02-18T03:04:05.013Z,29.35
2023-02-18T03:06:49.256Z,29.49
2023-02-18T03:09:42.551Z,29.40
2023-02-18T03:12:31.370Z,29.30
2023-02-18T03:15:12.614Z,29.02
2023-02-18T03:18:23.715Z,28.93
2023-02-18T03:21:46.245Z,29.02
2023-02-18T03:24:53.560Z,29.15
2023-02-18T03:27:35.120Z,28.78
2023-02-18T03:30:21.692Z,29.10
2023-02-18T03:32:56.541Z,29.42
2023-02-18T03:35:28.542Z,29.69
2023-02-18T03:38:14.452Z,29.56
2023-02-18T03:40:42.868Z,29.85
2023-02-18T03:43:11.048Z,30.03
2023-02-18T03:45:40.333Z,29.77
2023-02-18T03:48:09.717Z,29.81
2023-02-18T03:50:37.619Z,30.14
2023-02-18T03:53:09.854Z,30.16
2023-02-18T03:55:38.931Z,29.79
2023-02-18T03:58:08.503Z,29.88
2023-02-18T04:00:36.310Z,29.98
2023-02-18T04:03:05.246Z,30.09
2023-02-18T04:05:33.319Z,30.19
2023-02-18T04:08:01.112Z,30.00
2023-02-18T04:10:28.919Z,30.17
2023-02-18T04:12:56.799Z,30.25
2023-02-18T04:15:24.805Z,30.49
2023-02-18T04:17:53.194Z,30.56
2023-02-18T04:20:22.824Z,30.56
2023-02-18T04:22:50.777Z,30.38
2023-02-18T04:25:18.756Z,30.64
2023-02-18T04:27:46.623Z,30.79
2023-02-18T04:30:17.849Z,30.63
2023-02-18T04:32:46.726Z,30.75
2023-02-18T04:35:14.780Z,31.04
2023-02-18T04:37:42.523Z,31.08
2023-02-18T04:40:10.922Z,30.81
2023-02-18T04:42:39.678Z,31.05
2023-02-18T04:45:07.906Z,31.17
2023-02-18T04:47:35.784Z,30.99
2023-02-18T04:50:04.301Z,31.03
2023-02-18T04:52:33.902Z,30.88
2023-02-18T04:55:01.742Z,30.94
2023-02-18T04:57:30.044Z,30.83
2023-02-18T04:59:57.978Z,31.00
2023-02-18T05:02:28.629Z,30.95
2023-02-18T05:04:56.467Z,30.80
2023-02-18T05:07:26.945Z,30.78
2023-02-18T05:09:55.817Z,30.81
2023-02-18T05:12:23.696Z,31.22
2023-02-18T05:14:52.577Z,31.43
2023-02-18T05:17:20.597Z,31.13
2023-02-18T05:19:48.478Z,31.07
2023-02-18T05:22:16.290Z,31.04
2023-02-18T05:24:48.077Z,30.90
2023-02-18T05:27:15.871Z,31.35
2023-02-18T05:29:43.675Z,31.21
2023-02-18T05:32:11.519Z,31.13
2023-02-18T05:34:39.254Z,31.43
2023-02-18T05:37:06.931Z,31.46
2023-02-18T05:39:34.760Z,31.57
2023-02-18T05:42:02.494Z,31.79
2023-02-18T05:44:30.365Z,32.25
2023-02-18T05:47:00.580Z,32.00
2023-02-18T05:49:29.719Z,32.05
2023-02-18T05:51:59.125Z,32.25
2023-02-18T05:54:27.755Z,32.92
2023-02-18T05:56:56.231Z,33.35
2023-02-18T05:59:25.105Z,33.63
2023-02-18T06:01:54.136Z,33.29
2023-02-18T06:04:23.633Z,33.07
2023-02-18T06:06:51.980Z,32.84
2023-02-18T06:09:19.971Z,33.33
2023-02-18T06:11:49.719Z,33.50
2023-02-18T06:14:17.718Z,33.98
2023-02-18T06:16:46.207Z,34.34
2023-02-18T06:19:14.079Z,34.65
2023-02-18T06:21:41.814Z,34.73
2023-02-18T06:24:09.593Z,34.87
2023-02-18T06:26:37.675Z,35.22
2023-02-18T06:29:05.369Z,35.96
2023-02-18T06:31:35.889Z,35.97
2023-02-18T06:34:03.911Z,36.36
2023-02-18T06:36:31.808Z,36.27
2023-02-18T06:38:59.561Z,37.40
2023-02-18T06:41:27.355Z,37.17
2023-02-18T06:43:58.702Z,36.83
2023-02-18T06:46:26.571Z,36.73
2023-02-18T06:48:54.906Z,36.51
2023-02-18T06:51:23.962Z,37.08
2023-02-18T06:53:52.225Z,36.99
2023-02-18T06:56:20.122Z,37.15
2023-02-18T06:58:49.232Z,37.26
2023-02-18T07:01:17.021Z,36.97
2023-02-18T07:03:44.951Z,38.44
2023-02-18T07:06:13.015Z,37.70
2023-02-18T07:08:41.264Z,37.42
2023-02-18T07:11:09.015Z,37.13
2023-02-18T07:13:42.129Z,37.01
2023-02-18T07:16:10.334Z,37.05
2023-02-18T07:18:40.405Z,37.29
2023-02-18T07:21:10.389Z,37.61
2023-02-18T07:23:38.819Z,37.28
2023-02-18T07:26:09.603Z,36.84
2023-02-18T07:28:39.745Z,36.46
2023-02-18T07:31:10.692Z,36.82
2023-02-18T07:33:39.531Z,36.61
2023-02-18T07:36:10.487Z,36.48
2023-02-18T07:38:41.285Z,36.58
2023-02-18T07:41:22.760Z,36.71
2023-02-18T07:43:50.845Z,36.47
2023-02-18T07:46:19.352Z,36.21
2023-02-18T07:48:47.208Z,35.91
2023-02-18T07:51:16.243Z,36.55
2023-02-18T07:53:46.051Z,35.83
2023-02-18T07:56:15.286Z,36.28
2023-02-18T07:58:43.128Z,36.37
2023-02-18T08:01:15.274Z,36.69
2023-02-18T08:03:43.278Z,36.15
2023-02-18T08:06:25.748Z,39.84
2023-02-18T08:08:55.218Z,40.49
2023-02-18T08:11:23.445Z,38.11
2023-02-18T08:13:55.846Z,37.57
2023-02-18T08:16:24.318Z,36.54
2023-02-18T08:18:53.173Z,35.78
2023-02-18T08:21:23.414Z,35.82
2023-02-18T08:23:52.157Z,35.95
2023-02-18T08:26:22.740Z,35.54
2023-02-18T08:28:50.896Z,35.05
2023-02-18T08:31:23.129Z,34.74
2023-02-18T08:33:52.813Z,35.95
2023-02-18T08:36:20.915Z,35.76
2023-02-18T08:38:48.887Z,35.98
2023-02-18T08:41:19.311Z,36.23
2023-02-18T08:43:48.307Z,35.71
2023-02-18T08:46:25.239Z,35.33
2023-02-18T08:49:04.951Z,34.79
2023-02-18T08:51:33.547Z,34.97
2023-02-18T08:54:01.589Z,35.01
2023-02-18T08:56:29.752Z,35.26
2023-02-18T08:58:58.727Z,35.74
2023-02-18T09:01:27.496Z,35.57
2023-02-18T09:04:00.512Z,35.23
2023-02-18T09:06:30.073Z,35.52
2023-02-18T09:08:59.450Z,35.54
2023-02-18T09:11:27.500Z,35.62
2023-02-18T09:13:55.363Z,35.61
2023-02-18T09:16:26.135Z,38.44
2023-02-18T09:18:54.266Z,36.54
2023-02-18T09:21:23.795Z,36.01
2023-02-18T09:23:51.921Z,36.29
2023-02-18T09:26:23.241Z,37.17
2023-02-18T09:28:54.291Z,36.17
2023-02-18T09:31:24.474Z,38.00
2023-02-18T09:33:59.779Z,36.99
2023-02-18T09:36:28.347Z,37.34
2023-02-18T09:38:58.135Z,37.39
2023-02-18T09:41:50.683Z,37.73
2023-02-18T09:44:51.134Z,38.58
2023-02-18T09:47:45.430Z,38.14
2023-02-18T09:50:21.309Z,38.24
2023-02-18T09:52:50.215Z,37.99
2023-02-18T09:55:33.953Z,43.45
2023-02-18T09:58:10.410Z,40.40
2023-02-18T10:00:47.776Z,38.78
2023-02-18T10:03:20.511Z,37.48
2023-02-18T10:05:58.180Z,36.83
2023-02-18T10:08:29.007Z,36.52
2023-02-18T10:10:57.393Z,36.56
2023-02-18T10:13:30.964Z,36.33
2023-02-18T10:15:59.314Z,36.35
2023-02-18T10:18:35.297Z,35.82
2023-02-18T10:21:08.339Z,35.58
2023-02-18T10:23:40.891Z,35.61
2023-02-18T10:26:16.965Z,35.66
2023-02-18T10:28:46.698Z,36.18
2023-02-18T10:31:20.850Z,36.25
2023-02-18T10:34:34.513Z,36.61
2023-02-18T10:37:15.832Z,36.03
2023-02-18T10:40:08.239Z,40.77
2023-02-18T10:43:16.946Z,39.53
2023-02-18T10:46:18.985Z,37.14
2023-02-18T10:49:01.020Z,37.39
2023-02-18T10:51:33.408Z,37.70
2023-02-18T10:54:02.604Z,37.92
2023-02-18T10:56:50.985Z,37.01
2023-02-18T10:59:24.569Z,37.02
2023-02-18T11:02:19.538Z,37.18
2023-02-18T11:04:47.899Z,37.77
2023-02-18T11:07:47.126Z,37.71
2023-02-18T11:10:26.411Z,38.16
2023-02-18T11:13:05.617Z,37.22
2023-02-18T11:15:34.786Z,37.54
2023-02-18T11:18:25.265Z,38.73
2023-02-18T11:21:03.858Z,37.30
2023-02-18T11:23:33.165Z,37.64
2023-02-18T11:26:13.252Z,38.61
2023-02-18T11:28:50.482Z,37.97
2023-02-18T11:31:22.264Z,38.60
2023-02-18T11:34:03.446Z,38.03
2023-02-18T11:36:35.250Z,37.33
2023-02-18T11:39:34.084Z,38.54
2023-02-18T11:42:05.300Z,37.39
2023-02-18T11:44:34.807Z,35.94
2023-02-18T11:47:12.605Z,34.86
2023-02-18T11:50:00.247Z,39.18
2023-02-18T11:52:44.976Z,34.64
2023-02-18T11:55:22.471Z,35.59
2023-02-18T11:58:08.837Z,33.97
2023-02-18T12:00:43.063Z,34.66
2023-02-18T12:03:29.580Z,35.20
2023-02-18T12:06:14.324Z,36.29
2023-02-18T12:09:06.433Z,33.84
2023-02-18T12:11:40.663Z,34.96
2023-02-18T12:14:23.281Z,34.45
2023-02-18T12:17:22.357Z,33.51
2023-02-18T12:20:03.450Z,32.93
2023-02-18T12:23:10.969Z,32.16
2023-02-18T12:26:08.155Z,33.37
2023-02-18T12:28:51.673Z,35.05
2023-02-18T12:31:31.094Z,34.42
2023-02-18T12:34:33.017Z,33.53
2023-02-18T12:37:00.755Z,33.59
2023-02-18T12:39:47.085Z,34.51
2023-02-18T12:42:31.984Z,32.64
2023-02-18T12:45:05.917Z,34.50
2023-02-18T12:48:01.912Z,34.16
2023-02-18T12:50:59.373Z,33.95
2023-02-18T12:53:42.599Z,34.43
2023-02-18T12:56:10.610Z,35.36
2023-02-18T12:59:16.219Z,37.88
2023-02-18T13:01:59.367Z,35.83
2023-02-18T13:04:54.732Z,36.36
2023-02-18T13:07:48.117Z,36.57
2023-02-18T13:10:48.638Z,34.62
2023-02-18T13:13:31.686Z,36.10
2023-02-18T13:16:06.916Z,35.95
2023-02-18T13:18:36.586Z,36.17
2023-02-18T13:21:13.119Z,35.52
2023-02-18T13:24:02.779Z,34.41
2023-02-18T13:26:33.325Z,34.96
2023-02-18T13:29:22.351Z,35.01
2023-02-18T13:32:10.936Z,35.64
2023-02-18T13:34:50.558Z,36.32
2023-02-18T13:37:52.662Z,35.34
2023-02-18T13:40:31.379Z,35.13
2023-02-18T13:43:21.641Z,35.25
2023-02-18T13:46:11.105Z,34.12
2023-02-18T13:48:53.906Z,33.21
2023-02-18T13:51:33.866Z,33.59
2023-02-18T13:54:13.149Z,33.43
2023-02-18T13:56:46.365Z,33.63
2023-02-18T13:59:43.677Z,34.06
2023-02-18T14:02:21.118Z,33.48
2023-02-18T14:04:51.106Z,32.96
2023-02-18T14:07:37.042Z,32.37
2023-02-18T14:10:31.935Z,31.88
2023-02-18T14:12:59.810Z,32.47
2023-02-18T14:15:28.069Z,32.76
2023-02-18T14:18:02.923Z,33.13
2023-02-18T14:20:39.566Z,33.08
2023-02-18T14:23:19.742Z,33.09
2023-02-18T14:26:07.433Z,32.97
2023-02-18T14:28:39.010Z,32.78
2023-02-18T14:31:14.757Z,33.21
2023-02-18T14:33:50.791Z,33.96
2023-02-18T14:36:30.623Z,33.07
2023-02-18T14:39:10.336Z,32.48
2023-02-18T14:42:03.354Z,32.47
2023-02-18T14:45:05.412Z,31.95
2023-02-18T14:47:45.523Z,31.79
2023-02-18T14:50:18.751Z,31.76
2023-02-18T14:53:03.656Z,31.91
2023-02-18T14:55:46.577Z,30.76
2023-02-18T14:58:29.840Z,30.70
2023-02-18T15:00:57.706Z,30.00
2023-02-18T15:03:28.929Z,31.45
2023-02-18T15:05:56.803Z,30.82
2023-02-18T15:08:26.515Z,30.94
2023-02-18T15:11:01.914Z,30.55
2023-02-18T15:13:33.324Z,30.48
2023-02-18T15:16:05.575Z,30.47
2023-02-18T15:18:38.199Z,30.36
2023-02-18T15:21:10.244Z,30.20
2023-02-18T15:23:41.311Z,29.64
2023-02-18T15:26:15.458Z,31.01
2023-02-18T15:28:55.686Z,30.09
2023-02-18T15:31:27.595Z,29.03
2023-02-18T15:33:57.001Z,29.05
2023-02-18T15:36:27.252Z,28.60
2023-02-18T15:38:57.536Z,28.05
2023-02-18T15:41:25.733Z,27.70
2023-02-18T15:44:04.179Z,27.04
2023-02-18T15:46:33.399Z,27.36
2023-02-18T15:49:09.076Z,27.17
2023-02-18T15:51:39.361Z,28.24
2023-02-18T15:54:07.285Z,28.60
2023-02-18T15:56:45.562Z,28.81
2023-02-18T15:59:43.053Z,27.75
2023-02-18T16:02:23.276Z,26.95
2023-02-18T16:05:00.640Z,28.09
2023-02-18T16:07:39.913Z,27.60
2023-02-18T16:10:23.930Z,26.52
2023-02-18T16:13:01.919Z,27.09
2023-02-18T16:15:32.686Z,27.53
2023-02-18T16:18:01.032Z,28.35
2023-02-18T16:20:38.470Z,28.40
2023-02-18T16:23:16.454Z,27.46
2023-02-18T16:25:51.797Z,27.42
2023-02-18T16:28:29.212Z,27.61
2023-02-18T16:31:00.032Z,27.41
2023-02-18T16:33:27.879Z,28.29
2023-02-18T16:35:58.138Z,28.11
2023-02-18T16:38:29.474Z,28.72
2023-02-18T16:43:43.735Z,28.82
2023-02-18T16:46:24.701Z,28.24
2023-02-18T16:48:58.711Z,28.73
2023-02-18T16:51:34.310Z,28.15
2023-02-18T16:54:04.495Z,28.86
2023-02-18T16:56:36.738Z,28.41
2023-02-18T16:59:05.575Z,28.59
2023-02-18T17:01:42.799Z,29.54
2023-02-18T17:04:16.167Z,29.36
2023-02-18T17:06:50.882Z,29.17
2023-02-18T17:09:22.908Z,30.07
2023-02-18T17:11:55.962Z,30.01
2023-02-18T17:14:25.087Z,30.09
2023-02-18T17:16:56.275Z,31.67
2023-02-18T17:19:24.441Z,31.73
2023-02-18T17:21:52.296Z,31.52
2023-02-18T17:24:21.363Z,31.14
2023-02-18T17:26:52.470Z,31.08
2023-02-18T17:29:24.539Z,30.46
2023-02-18T17:31:57.067Z,30.87
2023-02-18T17:34:31.403Z,31.24
2023-02-18T17:37:03.462Z,31.92
2023-02-18T17:39:33.605Z,31.34
2023-02-18T17:42:04.298Z,31.49
2023-02-18T17:44:32.509Z,32.30
2023-02-18T17:47:01.943Z,32.57
2023-02-18T17:49:32.662Z,32.29
2023-02-18T17:52:02.378Z,32.26
2023-02-18T17:54:30.756Z,31.66
2023-02-18T17:56:59.972Z,31.80
2023-02-18T17:59:33.344Z,31.55
2023-02-18T18:02:01.132Z,31.45
2023-02-18T18:04:29.448Z,31.37
2023-02-18T18:06:57.283Z,31.93
2023-02-18T18:09:25.715Z,32.98
2023-02-18T18:11:53.805Z,33.17
2023-02-18T18:14:21.581Z,33.50
2023-02-18T18:16:49.467Z,34.29
2023-02-18T18:19:17.158Z,33.94
2023-02-18T18:21:47.126Z,33.85
2023-02-18T18:24:15.273Z,34.59
2023-02-18T18:29:14.659Z,34.34
2023-02-18T18:31:43.985Z,35.25
2023-02-18T18:34:17.166Z,34.82
2023-02-18T18:36:44.981Z,36.01
2023-02-18T18:39:13.008Z,35.86
2023-02-18T18:41:41.016Z,34.90
2023-02-18T18:44:11.296Z,34.94
2023-02-18T18:46:41.072Z,34.65
2023-02-18T18:49:09.147Z,34.25
2023-02-18T18:51:37.381Z,34.85
2023-02-18T18:54:06.405Z,34.65
2023-02-18T18:56:35.933Z,34.18
2023-02-18T18:59:04.208Z,34.41
2023-02-18T19:01:33.427Z,34.86
2023-02-18T19:04:03.159Z,33.94
2023-02-18T19:06:32.196Z,34.00
2023-02-18T19:09:00.232Z,33.72
2023-02-18T19:11:28.330Z,33.90
2023-02-18T19:13:56.087Z,34.07
2023-02-18T19:16:44.429Z,34.29
2023-02-18T19:19:14.904Z,34.09
2023-02-18T19:21:46.834Z,33.83
2023-02-18T19:24:14.749Z,33.52
2023-02-18T19:26:42.511Z,34.05
2023-02-18T19:29:10.428Z,33.97
2023-02-18T19:31:38.464Z,33.67
2023-02-18T19:34:06.396Z,33.58
2023-02-18T19:36:34.361Z,34.70
2023-02-18T19:39:04.127Z,33.96
2023-02-18T19:41:32.166Z,33.89
2023-02-18T19:44:00.088Z,33.84
2023-02-18T19:46:28.073Z,34.45
2023-02-18T19:48:56.264Z,34.67
2023-02-18T19:51:25.159Z,34.08
2023-02-18T19:53:53.229Z,34.01
2023-02-18T19:56:21.999Z,33.82
2023-02-18T19:58:49.719Z,33.47
2023-02-18T20:01:18.484Z,33.15
2023-02-18T20:03:47.495Z,33.06
2023-02-18T20:06:21.103Z,33.62
2023-02-18T20:08:48.983Z,33.46
2023-02-18T20:11:17.306Z,33.98
2023-02-18T20:13:45.301Z,33.85
2023-02-18T20:16:13.115Z,34.07
2023-02-18T20:18:42.170Z,34.44
2023-02-18T20:21:12.002Z,34.35
2023-02-18T20:23:40.227Z,34.74
2023-02-18T20:26:16.054Z,34.92
2023-02-18T20:28:44.830Z,35.06
2023-02-18T20:31:16.109Z,35.05
2023-02-18T20:33:45.797Z,34.44
2023-02-18T20:36:18.820Z,35.18
2023-02-18T20:38:49.997Z,37.49
2023-02-18T20:41:19.618Z,36.48
2023-02-18T20:43:48.391Z,35.41
2023-02-18T20:46:22.927Z,35.07
2023-02-18T20:48:52.295Z,34.85
2023-02-18T20:51:22.516Z,34.52
2023-02-18T20:53:52.032Z,34.64
2023-02-18T20:56:21.711Z,34.50
2023-02-18T20:58:49.950Z,34.75
2023-02-18T21:01:22.099Z,34.73
2023-02-18T21:03:50.241Z,34.79
2023-02-18T21:06:21.891Z,34.58
2023-02-18T21:08:52.237Z,34.75
2023-02-18T21:11:22.823Z,34.43
2023-02-18T21:13:52.480Z,36.64
2023-02-18T21:16:22.255Z,36.18
2023-02-18T21:18:50.316Z,36.18
2023-02-18T21:21:22.938Z,36.09
2023-02-18T21:23:52.587Z,35.30
2023-02-18T21:26:23.721Z,36.28
2023-02-18T21:28:55.171Z,35.09
2023-02-18T21:31:25.308Z,35.29
2023-02-18T21:33:54.014Z,35.98
2023-02-18T21:36:22.488Z,35.62
2023-02-18T21:38:55.075Z,34.99
2023-02-18T21:41:25.056Z,34.65
2023-02-18T21:43:53.192Z,35.16
2023-02-18T21:46:34.554Z,35.17
2023-02-18T21:49:03.321Z,34.88
2023-02-18T21:51:53.319Z,35.22
2023-02-18T21:54:22.868Z,35.24
2023-02-18T21:56:50.861Z,35.09
2023-02-18T21:59:20.596Z,35.12
2023-02-18T22:01:49.355Z,35.07
2023-02-18T22:04:17.269Z,35.17
2023-02-18T22:06:45.564Z,35.27
2023-02-18T22:09:13.691Z,34.71
2023-02-18T22:11:43.075Z,34.80
2023-02-18T22:14:13.199Z,34.49
2023-02-18T22:16:42.073Z,34.41
2023-02-18T22:19:12.384Z,34.59
2023-02-18T22:21:41.153Z,34.31
2023-02-18T22:24:11.094Z,34.36
2023-02-18T22:26:39.018Z,34.66
2023-02-18T22:29:06.667Z,33.97
2023-02-18T22:31:34.472Z,34.26
2023-02-18T22:34:02.624Z,34.13
2023-02-18T22:36:30.749Z,34.26
2023-02-18T22:39:00.709Z,34.15
2023-02-18T22:41:30.434Z,34.17
2023-02-18T22:44:00.642Z,33.71
2023-02-18T22:46:29.879Z,33.39
2023-02-18T22:48:58.837Z,32.72
2023-02-18T22:51:41.511Z,32.29
2023-02-18T22:54:16.955Z,32.11
2023-02-18T22:56:46.638Z,32.54
2023-02-18T22:59:16.742Z,32.41
2023-02-18T23:01:49.709Z,32.73
2023-02-18T23:04:19.755Z,32.75
2023-02-18T23:06:48.133Z,33.13
2023-02-18T23:09:19.916Z,33.11
2023-02-18T23:11:53.409Z,32.87
2023-02-18T23:14:22.050Z,33.15
2023-02-18T23:17:14.010Z,32.75
2023-02-18T23:19:47.167Z,33.09
2023-02-18T23:22:19.923Z,33.03
2023-02-18T23:24:49.747Z,33.26
2023-02-18T23:27:18.276Z,32.85
2023-02-18T23:29:47.491Z,33.13
2023-02-18T23:32:18.064Z,32.69
2023-02-18T23:34:50.183Z,32.79
2023-02-18T23:37:18.594Z,32.84
2023-02-18T23:39:48.051Z,33.19
2023-02-18T23:42:17.414Z,33.25
2023-02-18T23:44:46.491Z,33.36
2023-02-18T23:47:14.321Z,33.53
2023-02-18T23:49:43.315Z,33.53
2023-02-18T23:52:11.266Z,33.33
2023-02-18T23:54:39.964Z,32.97
2023-02-18T23:57:08.956Z,33.07
2023-02-18T23:59:37.173Z,33.05
